createdAt,value
2023-03-01T00:02:18.008Z,6.18
2023-03-01T00:04:46.104Z,5.60
2023-03-01T00:07:14.448Z,5.95
2023-03-01T00:09:43.146Z,6.43
2023-03-01T00:12:13.248Z,5.60
2023-03-01T00:14:41.629Z,5.93
2023-03-01T00:17:09.643Z,6.43
2023-03-01T00:19:38.050Z,5.93
2023-03-01T00:22:06.363Z,6.15
2023-03-01T00:24:34.606Z,6.35
2023-03-01T00:27:05.855Z,5.90
2023-03-01T00:29:34.379Z,6.40
2023-03-01T00:32:02.897Z,6.13
2023-03-01T00:34:31.232Z,6.85
2023-03-01T00:37:06.175Z,6.80
2023-03-01T00:39:41.917Z,6.55
2023-03-01T00:44:38.109Z,7.35
2023-03-01T00:47:06.326Z,6.65
2023-03-01T00:49:38.512Z,6.85
2023-03-01T00:52:06.653Z,7.65
2023-03-01T00:54:37.242Z,7.90
2023-03-01T00:57:05.800Z,7.18
2023-03-01T00:59:34.183Z,7.28
2023-03-01T01:02:02.556Z,7.63
2023-03-01T01:04:30.807Z,7.63
2023-03-01T01:07:03.059Z,7.43
2023-03-01T01:09:31.138Z,7.47
2023-03-01T01:11:59.135Z,7.57
2023-03-01T01:14:27.518Z,8.07
2023-03-01T01:17:03.760Z,7.97
2023-03-01T01:19:32.359Z,8.10
2023-03-01T01:22:01.177Z,8.00
2023-03-01T01:24:29.399Z,7.60
2023-03-01T01:27:00.886Z,7.85
2023-03-01T01:29:29.544Z,7.63
2023-03-01T01:31:57.700Z,7.95
2023-03-01T01:34:28.731Z,7.32
2023-03-01T01:37:03.958Z,7.35
2023-03-01T01:39:32.444Z,8.60
2023-03-01T01:42:02.149Z,8.30
2023-03-01T01:44:31.543Z,8.68
2023-03-01T01:47:20.071Z,8.45
2023-03-01T01:49:55.925Z,9.35
2023-03-01T01:52:27.033Z,9.20
2023-03-01T01:55:04.306Z,8.57
2023-03-01T01:57:40.297Z,8.48
2023-03-01T02:00:31.206Z,9.43
2023-03-01T02:03:15.808Z,8.27
2023-03-01T02:05:55.599Z,8.95
2023-03-01T02:08:29.748Z,8.88
2023-03-01T02:11:01.037Z,8.50
2023-03-01T02:13:31.522Z,8.75
2023-03-01T02:16:09.835Z,9.15
2023-03-01T02:21:26.182Z,9.15
2023-03-01T02:24:07.648Z,9.07
2023-03-01T02:26:49.620Z,8.55
2023-03-01T02:29:25.339Z,8.90
2023-03-01T02:32:03.502Z,9.60
2023-03-01T02:34:33.818Z,9.05
2023-03-01T02:37:13.890Z,9.73
2023-03-01T02:39:49.958Z,10.18
2023-03-01T02:42:27.196Z,9.93
2023-03-01T02:44:56.010Z,10.23
2023-03-01T02:47:24.525Z,10.23
2023-03-01T02:49:52.883Z,11.52
2023-03-01T02:52:41.073Z,10.50
2023-03-01T02:55:15.853Z,10.75
2023-03-01T02:57:51.977Z,10.95
2023-03-01T03:00:30.032Z,11.15
2023-03-01T03:02:59.244Z,10.70
2023-03-01T03:05:31.215Z,10.82
2023-03-01T03:08:02.355Z,11.35
2023-03-01T03:10:38.868Z,11.32
2023-03-01T03:13:12.332Z,11.75
2023-03-01T03:15:50.381Z,11.35
2023-03-01T03:18:29.450Z,11.98
2023-03-01T03:20:57.834Z,12.55
2023-03-01T03:23:29.855Z,12.25
2023-03-01T03:25:58.604Z,12.32
2023-03-01T03:28:41.168Z,12.13
2023-03-01T03:31:09.778Z,12.07
2023-03-01T03:33:38.218Z,12.95
2023-03-01T03:36:06.893Z,12.25
2023-03-01T03:38:35.337Z,13.88
2023-03-01T03:41:32.471Z,14.10
2023-03-01T03:44:01.577Z,14.32
2023-03-01T03:46:44.339Z,13.82
2023-03-01T03:49:12.597Z,13.48
2023-03-01T03:51:43.413Z,12.25
2023-03-01T03:54:13.243Z,13.82
2023-03-01T03:56:44.168Z,13.80
2023-03-01T03:59:12.674Z,13.98
2023-03-01T04:02:31.923Z,14.45
2023-03-01T04:05:00.382Z,14.80
2023-03-01T04:07:29.124Z,14.85
2023-03-01T04:09:57.631Z,14.85
2023-03-01T04:12:26.076Z,15.02
2023-03-01T04:14:54.628Z,15.15
2023-03-01T04:17:22.844Z,15.68
2023-03-01T04:19:54.358Z,15.10
2023-03-01T04:22:22.752Z,14.88
2023-03-01T04:24:52.487Z,16.38
2023-03-01T04:27:23.593Z,15.32
2023-03-01T04:29:53.227Z,15.27
2023-03-01T04:32:25.249Z,16.08
2023-03-01T04:34:59.046Z,14.77
2023-03-01T04:37:27.271Z,14.68
2023-03-01T04:39:54.813Z,14.55
2023-03-01T04:42:22.306Z,13.93
2023-03-01T04:44:52.290Z,14.55
2023-03-01T04:47:19.801Z,13.55
2023-03-01T04:49:47.240Z,13.80
2023-03-01T04:52:14.645Z,13.32
2023-03-01T04:54:42.165Z,12.95
2023-03-01T04:57:09.767Z,13.65
2023-03-01T04:59:37.270Z,13.38
2023-03-01T05:02:04.787Z,12.90
2023-03-01T05:04:32.342Z,13.60
2023-03-01T05:06:59.961Z,13.45
2023-03-01T05:09:27.507Z,12.45
2023-03-01T05:11:54.975Z,12.48
2023-03-01T05:14:22.915Z,13.18
2023-03-01T05:16:50.417Z,12.20
2023-03-01T05:19:23.685Z,13.20
2023-03-01T05:22:03.049Z,12.40
2023-03-01T05:24:35.392Z,11.95
2023-03-01T05:27:03.928Z,11.77
2023-03-01T05:29:36.071Z,12.50
2023-03-01T05:32:03.959Z,12.65
2023-03-01T05:34:34.571Z,13.35
2023-03-01T05:37:03.264Z,14.27
2023-03-01T05:39:31.377Z,13.80
2023-03-01T05:42:00.887Z,13.60
2023-03-01T05:44:29.643Z,13.02
2023-03-01T05:46:57.518Z,13.10
2023-03-01T05:49:25.141Z,14.40
2023-03-01T05:51:53.994Z,13.48
2023-03-01T05:54:22.852Z,13.95
2023-03-01T05:56:50.335Z,14.15
2023-03-01T05:59:17.809Z,14.35
2023-03-01T06:01:45.350Z,14.65
2023-03-01T06:04:12.759Z,14.52
2023-03-01T06:06:40.587Z,15.13
2023-03-01T06:09:10.352Z,14.80
2023-03-01T06:11:38.168Z,15.50
2023-03-01T06:14:07.565Z,15.95
2023-03-01T06:16:37.526Z,15.65
2023-03-01T06:19:05.089Z,16.27
2023-03-01T06:21:32.804Z,16.48
2023-03-01T06:24:00.328Z,16.48
2023-03-01T06:26:27.938Z,17.52
2023-03-01T06:28:55.381Z,17.02
2023-03-01T06:31:22.780Z,18.50
2023-03-01T06:33:50.747Z,17.48
2023-03-01T06:36:19.821Z,17.70
2023-03-01T06:38:47.295Z,17.40
2023-03-01T06:41:15.072Z,17.67
2023-03-01T06:43:42.527Z,17.05
2023-03-01T06:46:10.203Z,16.60
2023-03-01T06:48:37.725Z,16.35
2023-03-01T06:51:05.517Z,15.68
2023-03-01T06:53:37.363Z,16.40
2023-03-01T06:56:05.208Z,15.98
2023-03-01T06:58:35.170Z,17.23
2023-03-01T07:01:08.769Z,17.02
2023-03-01T07:04:14.421Z,17.95
2023-03-01T07:06:57.287Z,16.65
2023-03-01T07:09:25.244Z,17.80
2023-03-01T07:11:52.809Z,17.15
2023-03-01T07:14:20.838Z,17.58
2023-03-01T07:16:48.367Z,18.15
2023-03-01T07:19:15.837Z,18.90
2023-03-01T07:21:43.526Z,17.15
2023-03-01T07:24:11.747Z,18.25
2023-03-01T07:26:57.535Z,17.92
2023-03-01T07:29:24.973Z,18.75
2023-03-01T07:31:53.632Z,18.10
2023-03-01T07:34:21.057Z,18.92
2023-03-01T07:36:48.548Z,18.85
2023-03-01T07:39:17.516Z,19.60
2023-03-01T07:41:45.966Z,19.45
2023-03-01T07:44:13.441Z,19.73
2023-03-01T07:46:40.943Z,19.08
2023-03-01T07:49:08.494Z,20.05
2023-03-01T07:51:35.947Z,19.50
2023-03-01T07:54:03.567Z,20.63
2023-03-01T07:56:31.455Z,21.02
2023-03-01T07:59:00.287Z,21.50
2023-03-01T08:01:27.739Z,20.40
2023-03-01T08:03:55.163Z,20.85
2023-03-01T08:06:22.730Z,20.13
2023-03-01T08:08:50.254Z,19.67
2023-03-01T08:11:17.753Z,18.20
2023-03-01T08:13:51.019Z,17.38
2023-03-01T08:16:18.929Z,16.58
2023-03-01T08:18:47.611Z,16.70
2023-03-01T08:21:17.914Z,17.13
2023-03-01T08:23:45.759Z,17.15
2023-03-01T08:26:15.271Z,16.95
2023-03-01T08:28:43.661Z,17.63
2023-03-01T08:31:38.557Z,18.00
2023-03-01T08:34:12.601Z,19.58
2023-03-01T08:36:42.630Z,19.20
2023-03-01T08:39:12.699Z,17.90
2023-03-01T08:41:40.862Z,19.73
2023-03-01T08:44:09.871Z,18.85
2023-03-01T08:46:42.032Z,18.50
2023-03-01T08:49:14.169Z,19.20
2023-03-01T08:51:42.121Z,18.48
2023-03-01T08:54:15.886Z,19.45
2023-03-01T08:56:43.534Z,18.90
2023-03-01T08:59:15.899Z,18.08
2023-03-01T09:01:46.321Z,18.58
2023-03-01T09:04:15.450Z,19.40
2023-03-01T09:06:43.166Z,19.55
2023-03-01T09:09:17.072Z,19.33
2023-03-01T09:11:47.408Z,19.95
2023-03-01T09:14:15.333Z,18.77
2023-03-01T09:16:43.439Z,20.05
2023-03-01T09:19:12.137Z,20.40
2023-03-01T09:21:41.234Z,19.90
2023-03-01T09:24:15.807Z,17.77
2023-03-01T09:26:44.060Z,19.17
2023-03-01T09:29:11.534Z,17.58
2023-03-01T09:31:39.350Z,18.73
2023-03-01T09:34:07.418Z,18.05
2023-03-01T09:36:35.202Z,17.38
2023-03-01T09:39:03.928Z,17.08
2023-03-01T09:41:47.099Z,17.52
2023-03-01T09:44:26.492Z,17.30
2023-03-01T09:46:54.272Z,17.75
2023-03-01T09:49:35.008Z,17.75
2023-03-01T09:52:16.188Z,39.60
2023-03-01T09:54:43.665Z,23.30
2023-03-01T09:57:27.591Z,17.25
2023-03-01T10:00:15.616Z,14.90
2023-03-01T10:02:48.462Z,16.52
2023-03-01T10:05:42.507Z,16.60
2023-03-01T10:08:58.216Z,16.38
2023-03-01T10:11:39.345Z,16.73
2023-03-01T10:14:30.561Z,15.30
2023-03-01T10:17:05.781Z,15.05
2023-03-01T10:19:43.288Z,15.82
2023-03-01T10:22:22.416Z,15.45
2023-03-01T10:24:52.990Z,15.75
2023-03-01T10:27:49.295Z,16.10
2023-03-01T10:30:40.467Z,16.80
2023-03-01T10:33:32.075Z,16.48
2023-03-01T10:35:59.730Z,15.52
2023-03-01T10:38:31.089Z,15.85
2023-03-01T10:41:06.546Z,15.82
2023-03-01T10:43:52.795Z,16.48
2023-03-01T10:46:24.705Z,16.30
2023-03-01T10:49:21.213Z,15.70
2023-03-01T10:51:51.455Z,16.08
2023-03-01T10:54:29.882Z,15.73
2023-03-01T10:57:00.210Z,14.98
2023-03-01T10:59:36.119Z,14.65
2023-03-01T11:02:24.968Z,14.65
2023-03-01T11:05:14.579Z,12.90
2023-03-01T11:07:57.597Z,13.32
2023-03-01T11:10:30.808Z,14.15
2023-03-01T11:13:19.443Z,14.43
2023-03-01T11:16:07.918Z,14.85
2023-03-01T11:18:47.153Z,15.65
2023-03-01T11:21:17.285Z,15.82
2023-03-01T11:23:47.957Z,16.20
2023-03-01T11:26:17.837Z,14.57
2023-03-01T11:28:51.308Z,15.13
2023-03-01T11:31:20.725Z,15.23
2023-03-01T11:34:03.870Z,15.55
2023-03-01T11:36:39.063Z,15.32
2023-03-01T11:39:24.384Z,15.43
2023-03-01T11:42:18.551Z,16.40
2023-03-01T11:44:50.797Z,16.55
2023-03-01T11:47:34.121Z,17.38
2023-03-01T11:50:01.671Z,17.23
2023-03-01T11:52:33.769Z,17.13
2023-03-01T11:55:18.480Z,15.55
2023-03-01T11:58:07.064Z,16.05
2023-03-01T12:00:53.029Z,14.95
2023-03-01T12:06:15.733Z,12.70
2023-03-01T12:08:52.796Z,9.55
2023-03-01T12:11:32.734Z,10.02
2023-03-01T12:14:25.446Z,11.65
2023-03-01T12:17:27.075Z,12.02
2023-03-01T12:20:21.335Z,10.75
2023-03-01T12:23:19.569Z,10.93
2023-03-01T12:26:25.966Z,10.15
2023-03-01T12:29:18.077Z,9.48
2023-03-01T12:32:01.110Z,9.43
2023-03-01T12:35:18.001Z,9.05
2023-03-01T12:38:30.221Z,10.32
2023-03-01T12:41:18.638Z,9.82
2023-03-01T12:44:11.041Z,9.77
2023-03-01T12:47:09.893Z,8.57
2023-03-01T12:49:46.044Z,8.75
2023-03-01T12:52:19.966Z,7.65
2023-03-01T12:54:49.013Z,9.20
2023-03-01T12:57:30.287Z,8.52
2023-03-01T13:00:28.320Z,7.72
2023-03-01T13:03:19.169Z,5.93
2023-03-01T13:05:57.610Z,5.07
2023-03-01T13:08:37.726Z,5.22
2023-03-01T13:11:13.077Z,5.00
2023-03-01T13:13:40.515Z,5.53
2023-03-01T13:16:43.956Z,5.15
2023-03-01T13:19:25.263Z,5.15
2023-03-01T13:21:57.915Z,5.15
2023-03-01T13:24:27.947Z,4.90
2023-03-01T13:27:07.111Z,4.85
2023-03-01T13:29:47.880Z,5.07
2023-03-01T13:32:43.123Z,4.47
2023-03-01T13:38:38.301Z,5.63
2023-03-01T13:41:06.374Z,5.40
2023-03-01T13:43:36.632Z,5.68
2023-03-01T13:46:30.791Z,5.30
2023-03-01T13:48:58.499Z,5.90
2023-03-01T13:51:29.400Z,5.55
2023-03-01T13:53:58.768Z,5.55
2023-03-01T13:56:29.303Z,5.63
2023-03-01T13:59:05.450Z,5.38
2023-03-01T14:01:36.248Z,5.25
2023-03-01T14:04:19.215Z,5.90
2023-03-01T14:06:47.607Z,5.60
2023-03-01T14:09:22.585Z,5.78
2023-03-01T14:12:28.460Z,6.00
2023-03-01T14:15:21.301Z,6.05
2023-03-01T14:18:03.465Z,6.03
2023-03-01T14:20:36.436Z,5.55
2023-03-01T14:23:12.720Z,6.03
2023-03-01T14:25:49.923Z,5.78
2023-03-01T14:28:24.161Z,6.00
2023-03-01T14:30:56.749Z,6.45
2023-03-01T14:33:27.305Z,5.85
2023-03-01T14:36:13.774Z,5.50
2023-03-01T14:38:49.270Z,5.35
2023-03-01T14:41:25.836Z,5.28
2023-03-01T14:44:00.845Z,5.03
2023-03-01T14:46:39.784Z,5.88
2023-03-01T14:49:39.627Z,4.78
2023-03-01T14:52:22.018Z,5.18
2023-03-01T14:54:52.195Z,4.95
2023-03-01T14:57:27.290Z,4.90
2023-03-01T14:59:58.347Z,5.60
2023-03-01T15:02:28.405Z,4.85
2023-03-01T15:04:58.504Z,4.85
2023-03-01T15:07:30.822Z,4.78
2023-03-01T15:10:00.065Z,5.20
2023-03-01T15:12:30.176Z,5.55
2023-03-01T15:15:04.181Z,4.80
2023-03-01T15:17:35.427Z,6.15
2023-03-01T15:20:06.890Z,6.05
2023-03-01T15:22:35.947Z,5.95
2023-03-01T15:25:03.613Z,6.70
2023-03-01T15:27:31.086Z,7.20
2023-03-01T15:30:01.246Z,7.05
2023-03-01T15:32:32.279Z,7.57
2023-03-01T15:35:01.855Z,6.82
2023-03-01T15:38:02.580Z,7.70
2023-03-01T15:40:33.581Z,7.10
2023-03-01T15:43:07.967Z,7.35
2023-03-01T15:45:39.868Z,6.82
2023-03-01T15:48:18.605Z,6.65
2023-03-01T15:50:58.694Z,6.50
2023-03-01T15:53:35.335Z,6.65
2023-03-01T15:56:25.922Z,7.30
2023-03-01T15:59:02.262Z,7.20
2023-03-01T16:01:30.116Z,7.07
2023-03-01T16:03:59.139Z,7.38
2023-03-01T16:06:26.767Z,6.88
2023-03-01T16:08:54.523Z,7.30
2023-03-01T16:11:22.352Z,7.20
2023-03-01T16:13:50.777Z,7.50
2023-03-01T16:16:18.466Z,7.68
2023-03-01T16:18:47.681Z,7.70
2023-03-01T16:21:19.428Z,7.53
2023-03-01T16:23:47.080Z,7.07
2023-03-01T16:26:15.521Z,7.25
2023-03-01T16:28:43.901Z,7.57
2023-03-01T16:31:12.108Z,7.20
2023-03-01T16:33:39.837Z,7.25
2023-03-01T16:36:12.383Z,7.95
2023-03-01T16:38:39.805Z,6.82
2023-03-01T16:41:13.259Z,7.53
2023-03-01T16:43:42.029Z,7.82
2023-03-01T16:46:20.689Z,8.25
2023-03-01T16:48:49.074Z,8.23
2023-03-01T16:51:16.935Z,8.60
2023-03-01T16:53:46.333Z,8.63
2023-03-01T16:56:15.493Z,8.85
2023-03-01T16:58:46.817Z,7.88
2023-03-01T17:01:21.190Z,8.30
2023-03-01T17:03:50.983Z,8.38
2023-03-01T17:06:28.018Z,8.30
2023-03-01T17:08:55.855Z,8.65
2023-03-01T17:11:24.065Z,8.48
2023-03-01T17:13:56.373Z,8.77
2023-03-01T17:16:28.313Z,8.43
2023-03-01T17:18:56.640Z,8.95
2023-03-01T17:21:24.873Z,9.50
2023-03-01T17:24:03.343Z,9.05
2023-03-01T17:26:34.177Z,9.45
2023-03-01T17:29:09.760Z,9.35
2023-03-01T17:31:44.375Z,8.57
2023-03-01T17:34:40.104Z,8.32
2023-03-01T17:39:39.925Z,8.82
2023-03-01T17:42:08.037Z,8.38
2023-03-01T17:44:39.401Z,8.80
2023-03-01T17:47:07.288Z,9.77
2023-03-01T17:49:34.945Z,8.82
2023-03-01T17:52:02.777Z,8.13
2023-03-01T17:54:30.806Z,8.30
2023-03-01T17:57:00.249Z,7.60
2023-03-01T17:59:40.703Z,7.95
2023-03-01T18:02:13.737Z,7.10
2023-03-01T18:04:41.434Z,6.97
2023-03-01T18:07:12.813Z,7.15
2023-03-01T18:09:41.329Z,7.13
2023-03-01T18:12:10.815Z,7.93
2023-03-01T18:14:55.663Z,7.22
2023-03-01T18:17:26.130Z,7.18
2023-03-01T18:19:57.643Z,6.90
2023-03-01T18:22:26.201Z,7.10
2023-03-01T18:24:53.702Z,6.65
2023-03-01T18:27:21.287Z,6.30
2023-03-01T18:29:48.832Z,6.35
2023-03-01T18:32:17.794Z,6.47
2023-03-01T18:34:48.555Z,6.10
2023-03-01T18:37:16.523Z,6.38
2023-03-01T18:39:58.847Z,6.65
2023-03-01T18:42:29.538Z,7.00
2023-03-01T18:45:02.120Z,6.97
2023-03-01T18:47:30.322Z,7.82
2023-03-01T18:49:58.204Z,6.90
2023-03-01T18:52:26.025Z,7.07
2023-03-01T18:54:59.939Z,7.20
2023-03-01T18:57:34.929Z,6.80
2023-03-01T19:00:06.220Z,6.88
2023-03-01T19:02:45.525Z,7.68
2023-03-01T19:05:17.374Z,7.90
2023-03-01T19:09:00.800Z,7.20
2023-03-01T19:11:44.045Z,6.82
2023-03-01T19:25:19.816Z,6.35
2023-03-01T19:27:58.024Z,6.78
2023-03-01T19:37:04.426Z,8.32
2023-03-01T19:46:28.182Z,8.50
2023-03-01T19:50:00.216Z,6.18
2023-03-01T20:00:48.668Z,5.25
2023-03-01T20:09:37.700Z,4.40
2023-03-01T20:12:40.560Z,3.97
2023-03-01T20:15:13.530Z,4.15
2023-03-01T20:18:32.226Z,3.70
2023-03-01T20:21:01.130Z,3.90
2023-03-01T20:23:29.640Z,3.30
2023-03-01T20:30:32.200Z,3.35
2023-03-01T20:38:11.399Z,3.90
2023-03-01T20:40:47.686Z,3.20
2023-03-01T20:43:22.383Z,3.50
2023-03-01T20:45:52.769Z,3.58
2023-03-01T20:52:47.433Z,2.97
2023-03-01T20:55:47.471Z,3.10
2023-03-01T20:58:25.253Z,3.28
2023-03-01T21:01:24.671Z,3.50
2023-03-01T21:04:31.373Z,3.13
2023-03-01T21:11:29.270Z,2.78
2023-03-01T21:14:14.560Z,2.70
2023-03-01T21:17:12.166Z,2.70
2023-03-01T21:19:43.854Z,2.88
2023-03-01T21:22:15.446Z,2.90
2023-03-01T21:24:52.341Z,3.00
2023-03-01T21:27:22.352Z,3.00
2023-03-01T21:33:46.401Z,2.92
2023-03-01T21:36:31.097Z,3.17
2023-03-01T21:40:06.220Z,3.83
2023-03-01T21:42:52.492Z,3.58
2023-03-01T21:45:20.231Z,3.50
2023-03-01T21:47:50.281Z,3.65
2023-03-01T21:50:47.773Z,3.58
2023-03-01T21:54:17.149Z,3.60
2023-03-01T21:57:05.646Z,3.28
2023-03-01T22:00:08.477Z,3.38
2023-03-01T22:04:32.243Z,3.33
2023-03-01T22:07:46.591Z,3.88
2023-03-01T22:11:18.748Z,4.00
2023-03-01T22:14:27.661Z,3.67
2023-03-01T22:59:24.667Z,2.80
2023-03-01T23:18:37.694Z,2.85
2023-03-01T23:22:26.841Z,2.85
2023-03-01T23:24:56.845Z,2.78
2023-03-01T23:27:26.911Z,2.90
2023-03-01T23:31:12.405Z,2.58
2023-03-01T23:33:45.935Z,2.83
2023-03-01T23:36:27.269Z,3.00
2023-03-01T23:39:07.496Z,2.80
2023-03-01T23:41:40.546Z,2.55
2023-03-01T23:44:26.519Z,2.45
2023-03-01T23:49:25.112Z,2.70
2023-03-01T23:52:04.317Z,2.42
2023-03-01T23:55:58.640Z,1.98
2023-03-01T23:58:30.924Z,2.00
